PWSweather.com
Personal Weather Stations
Station Observations
KMAMEDFI2
Medfield, MA 02052

Medfield, MA 02052

Lat: 42.1900822, Lon: -71.3296889

Elevation: 138

Station Type: Rainwise WS MK-III

http://www.medfieldweather.com

Latest ConditionsUpdated 9:10:00 AM EDT Monday, May 29, 2017
Currently Today's Max Today's Min Today's Average
Temperature 53.8°F12.1°C 53.8°F12.1°C 46.6°F8.1°C 50.1°F10.1°C
Dew Point 53.0°F11.7°C 53.0°F11.7°C 45.8°F7.7°C 49.3°F9.6°C
Winds 2.3 mph N3.7 kmh N 2.7 mph E4.3 kmh E - 0.8 mph 1.3 kmh
Wind Gusts 2.6 mph4.2 kmh 2.6 mph4.2 kmh - -
Humidity 97% 97% 97% 97%
Pressure 29.97 in1014.9 mb 29.98 in1015.2 mb 29.93 in1013.5 mb -
Hour Temp Dew Point Humidity Winds Wind Gusts Pressure Precip Precip Rate Daily Precip Total
09:10 AM 53.8°F12.1°C 53.0°F11.7°C 97% 2.3 mph N3.7 kmh N 2.6 mph4.2 kmh 29.97 in1014.9 mb - 0.00 in0.0 mm 0.00 in0.0 mm
09:00 AM 53.6°F12.0°C 52.8°F11.6°C 97% 1.0 mph SW1.6 kmh SW 2.6 mph4.2 kmh 29.97 in1014.9 mb - 0.00 in0.0 mm 0.00 in0.0 mm
08:50 AM 53.5°F11.9°C 52.7°F11.5°C 97% 2.4 mph E3.9 kmh E 2.6 mph4.2 kmh 29.97 in1014.9 mb - 0.00 in0.0 mm 0.00 in0.0 mm
08:40 AM 53.6°F12.0°C 52.8°F11.6°C 97% 2.7 mph E4.3 kmh E 2.6 mph4.2 kmh 29.98 in1015.2 mb - 0.00 in0.0 mm 0.00 in0.0 mm
08:30 AM 53.4°F11.9°C 52.6°F11.4°C 97% 2.3 mph E3.7 kmh E 2.6 mph4.2 kmh 29.97 in1014.9 mb - 0.00 in0.0 mm 0.00 in0.0 mm
08:20 AM 53.2°F11.8°C 52.4°F11.3°C 97% 2.3 mph ESE3.7 kmh ESE 2.6 mph4.2 kmh 29.98 in1015.2 mb - 0.00 in0.0 mm 0.00 in0.0 mm
08:10 AM 52.9°F11.6°C 52.1°F11.2°C 97% 2.5 mph E4.0 kmh E 2.6 mph4.2 kmh 29.97 in1014.9 mb - 0.00 in0.0 mm 0.00 in0.0 mm
08:00 AM 52.8°F11.6°C 52.0°F11.1°C 97% 2.3 mph E3.7 kmh E 2.6 mph4.2 kmh 29.97 in1014.9 mb - 0.00 in0.0 mm 0.00 in0.0 mm
07:50 AM 52.6°F11.4°C 51.8°F11.0°C 97% 1.7 mph SSE2.7 kmh SSE 2.6 mph4.2 kmh 29.97 in1014.9 mb - 0.00 in0.0 mm 0.00 in0.0 mm
07:40 AM 52.4°F11.3°C 51.6°F10.9°C 97% 1.5 mph NE2.4 kmh NE 2.6 mph4.2 kmh 29.97 in1014.9 mb - 0.00 in0.0 mm 0.00 in0.0 mm
07:30 AM 52.1°F11.2°C 51.3°F10.7°C 97% 2.3 mph NE3.7 kmh NE 2.6 mph4.2 kmh 29.97 in1014.9 mb - 0.00 in0.0 mm 0.00 in0.0 mm
07:20 AM 51.7°F10.9°C 50.9°F10.5°C 97% 1.1 mph E1.8 kmh E 1.3 mph2.1 kmh 29.97 in1014.9 mb - 0.00 in0.0 mm 0.00 in0.0 mm
07:10 AM 51.6°F10.9°C 50.8°F10.4°C 97% 1.7 mph E2.7 kmh E 2.6 mph4.2 kmh 29.97 in1014.9 mb - 0.00 in0.0 mm 0.00 in0.0 mm
07:00 AM 51.2°F10.7°C 50.4°F10.2°C 97% 1.9 mph E3.1 kmh E 2.6 mph4.2 kmh 29.96 in1014.6 mb - 0.00 in0.0 mm 0.00 in0.0 mm
06:50 AM 51.1°F10.6°C 50.3°F10.2°C 97% 2.2 mph E3.5 kmh E 2.6 mph4.2 kmh 29.96 in1014.6 mb - 0.00 in0.0 mm 0.00 in0.0 mm
06:40 AM 50.7°F10.4°C 49.9°F9.9°C 97% 2.7 mph E4.3 kmh E 2.6 mph4.2 kmh 29.95 in1014.2 mb - 0.00 in0.0 mm 0.00 in0.0 mm
06:30 AM 50.3°F10.2°C 49.5°F9.7°C 97% 2.1 mph ESE3.4 kmh ESE 2.6 mph4.2 kmh 29.96 in1014.6 mb - 0.00 in0.0 mm 0.00 in0.0 mm
06:20 AM 50.1°F10.1°C 49.3°F9.6°C 97% 1.4 mph SE2.3 kmh SE 2.6 mph4.2 kmh 29.96 in1014.6 mb - 0.00 in0.0 mm 0.00 in0.0 mm
06:10 AM 49.7°F9.8°C 48.9°F9.4°C 97% 1.5 mph SE2.4 kmh SE 2.6 mph4.2 kmh 29.96 in1014.6 mb - 0.00 in0.0 mm 0.00 in0.0 mm
06:00 AM 49.3°F9.6°C 48.5°F9.2°C 97% 1.5 mph SE2.4 kmh SE 1.3 mph2.1 kmh 29.96 in1014.6 mb - 0.00 in0.0 mm 0.00 in0.0 mm
05:50 AM 49.2°F9.6°C 48.4°F9.1°C 97% 1.0 mph SE1.6 kmh SE 2.6 mph4.2 kmh 29.95 in1014.2 mb - 0.00 in0.0 mm 0.00 in0.0 mm
05:40 AM 48.9°F9.4°C 48.1°F8.9°C 97% 1.5 mph SE2.4 kmh SE 2.6 mph4.2 kmh 29.95 in1014.2 mb - 0.00 in0.0 mm 0.00 in0.0 mm
05:30 AM 48.6°F9.2°C 47.8°F8.8°C 97% Calm Calm 1.3 mph2.1 kmh 29.95 in1014.2 mb - 0.00 in0.0 mm 0.00 in0.0 mm
05:20 AM 47.7°F8.7°C 46.9°F8.3°C 97% Calm Calm -- 29.95 in1014.2 mb - 0.00 in0.0 mm 0.00 in0.0 mm
05:10 AM 46.6°F8.1°C 45.8°F7.7°C 97% Calm Calm -- 29.94 in1013.9 mb - 0.00 in0.0 mm 0.00 in0.0 mm
05:00 AM 46.7°F8.2°C 45.9°F7.7°C 97% Calm Calm -- 29.93 in1013.5 mb - 0.00 in0.0 mm 0.00 in0.0 mm
04:50 AM 46.9°F8.3°C 46.1°F7.8°C 97% Calm Calm -- 29.93 in1013.5 mb - 0.00 in0.0 mm 0.00 in0.0 mm
04:40 AM 46.7°F8.2°C 45.9°F7.7°C 97% Calm Calm -- 29.93 in1013.5 mb - 0.00 in0.0 mm 0.00 in0.0 mm
04:30 AM 46.8°F8.2°C 46.0°F7.8°C 97% 0.7 mph SE1.1 kmh SE 1.3 mph2.1 kmh 29.93 in1013.5 mb - 0.00 in0.0 mm 0.00 in0.0 mm
04:20 AM 46.9°F8.3°C 46.1°F7.8°C 97% Calm Calm -- 29.93 in1013.5 mb - 0.00 in0.0 mm 0.00 in0.0 mm
04:10 AM 47.0°F8.3°C 46.2°F7.9°C 97% Calm Calm -- 29.93 in1013.5 mb - 0.00 in0.0 mm 0.00 in0.0 mm
04:00 AM 47.6°F8.7°C 46.7°F8.2°C 97% Calm Calm -- 29.93 in1013.5 mb - 0.00 in0.0 mm 0.00 in0.0 mm
03:50 AM 47.9°F8.8°C 47.1°F8.4°C 97% Calm Calm -- 29.93 in1013.5 mb - 0.00 in0.0 mm 0.00 in0.0 mm
03:40 AM 48.2°F9.0°C 47.3°F8.5°C 97% Calm Calm -- 29.94 in1013.9 mb - 0.00 in0.0 mm 0.00 in0.0 mm
03:30 AM 48.3°F9.1°C 47.4°F8.6°C 97% Calm Calm -- 29.94 in1013.9 mb - 0.00 in0.0 mm 0.00 in0.0 mm
03:20 AM 48.7°F9.3°C 47.9°F8.8°C 97% Calm Calm -- 29.95 in1014.2 mb - 0.00 in0.0 mm 0.00 in0.0 mm
03:10 AM 49.2°F9.6°C 48.3°F9.1°C 97% 0.1 mph SE0.2 kmh SE -- 29.95 in1014.2 mb - 0.00 in0.0 mm 0.00 in0.0 mm
03:00 AM 49.2°F9.6°C 48.4°F9.1°C 97% Calm Calm -- 29.94 in1013.9 mb - 0.00 in0.0 mm 0.00 in0.0 mm
02:50 AM 49.2°F9.6°C 48.4°F9.1°C 97% Calm Calm -- 29.94 in1013.9 mb - 0.00 in0.0 mm 0.00 in0.0 mm
02:40 AM 48.3°F9.1°C 47.5°F8.6°C 97% Calm Calm -- 29.95 in1014.2 mb - 0.00 in0.0 mm 0.00 in0.0 mm
02:30 AM 48.2°F9.0°C 47.4°F8.6°C 97% Calm Calm -- 29.94 in1013.9 mb - 0.00 in0.0 mm 0.00 in0.0 mm
02:20 AM 48.7°F9.3°C 47.8°F8.8°C 97% Calm Calm -- 29.94 in1013.9 mb - 0.00 in0.0 mm 0.00 in0.0 mm
02:10 AM 49.0°F9.4°C 48.1°F8.9°C 97% Calm Calm -- 29.94 in1013.9 mb - 0.00 in0.0 mm 0.00 in0.0 mm
02:00 AM 49.2°F9.6°C 48.3°F9.1°C 97% Calm Calm -- 29.94 in1013.9 mb - 0.00 in0.0 mm 0.00 in0.0 mm
01:50 AM 49.7°F9.8°C 48.9°F9.4°C 97% Calm Calm -- 29.94 in1013.9 mb - 0.00 in0.0 mm 0.00 in0.0 mm
01:40 AM 50.1°F10.1°C 49.3°F9.6°C 97% Calm Calm -- 29.95 in1014.2 mb - 0.00 in0.0 mm 0.00 in0.0 mm
01:30 AM 50.4°F10.2°C 49.6°F9.8°C 97% 0.3 mph SE0.5 kmh SE 1.3 mph2.1 kmh 29.95 in1014.2 mb - 0.00 in0.0 mm 0.00 in0.0 mm
01:20 AM 50.5°F10.3°C 49.7°F9.8°C 97% 0.1 mph SE0.2 kmh SE -- 29.95 in1014.2 mb - 0.00 in0.0 mm 0.00 in0.0 mm
01:10 AM 50.6°F10.3°C 49.8°F9.9°C 97% 0.1 mph SE0.2 kmh SE 1.3 mph2.1 kmh 29.95 in1014.2 mb - 0.00 in0.0 mm 0.00 in0.0 mm
01:00 AM 50.8°F10.4°C 50.0°F10.0°C 97% Calm Calm -- 29.95 in1014.2 mb - 0.00 in0.0 mm 0.00 in0.0 mm
12:50 AM 50.9°F10.5°C 50.1°F10.1°C 97% Calm Calm -- 29.95 in1014.2 mb - 0.00 in0.0 mm 0.00 in0.0 mm
12:40 AM 51.4°F10.8°C 50.6°F10.3°C 97% Calm Calm -- 29.95 in1014.2 mb - 0.00 in0.0 mm 0.00 in0.0 mm
12:30 AM 51.9°F11.1°C 51.1°F10.6°C 97% Calm Calm -- 29.96 in1014.6 mb - 0.00 in0.0 mm 0.00 in0.0 mm
12:20 AM 52.2°F11.2°C 51.4°F10.8°C 97% Calm Calm -- 29.96 in1014.6 mb - 0.00 in0.0 mm 0.00 in0.0 mm
12:10 AM 52.7°F11.5°C 51.9°F11.1°C 97% Calm Calm -- 29.96 in1014.6 mb - 0.00 in0.0 mm 0.00 in0.0 mm
12:00 AM 52.7°F11.5°C 51.9°F11.1°C 97% Calm Calm -- 29.96 in1014.6 mb - 0.00 in0.0 mm 0.00 in0.0 mm